Terminal Aerodrome Forecast
Issued by NWS

Home | Current Version | Previous Version | Text Only | Print | Product List | Glossary On
Versions: 1 2 3 4 5 6 7 8 9 10 11 12 13 14
000
FTUS46 KMTR 250500
TAFSTS
TAF
KSTS 250535Z 2506/2606 32015G25KT P6SM SKC
     FM250900 33012KT P6SM SKC
     FM252100 24007KT P6SM FEW040
     FM260300 24004KT P6SM SKC=

USA.gov is the U.S. government's official web portal to all federal, state and local government web resources and services.